createdAt,value
2023-03-12T00:02:17.178Z,6.07
2023-03-12T00:04:43.661Z,5.35
2023-03-12T00:07:10.126Z,6.22
2023-03-12T00:09:38.732Z,6.13
2023-03-12T00:12:05.753Z,5.85
2023-03-12T00:14:32.994Z,6.13
2023-03-12T00:16:59.454Z,5.35
2023-03-12T00:19:26.101Z,5.47
2023-03-12T00:21:52.563Z,5.35
2023-03-12T00:24:19.170Z,5.53
2023-03-12T00:26:45.644Z,5.30
2023-03-12T00:29:12.144Z,5.13
2023-03-12T00:31:38.662Z,5.20
2023-03-12T00:34:05.151Z,5.55
2023-03-12T00:36:32.585Z,6.13
2023-03-12T00:39:00.478Z,5.15
2023-03-12T00:41:28.009Z,5.57
2023-03-12T00:43:54.585Z,6.00
2023-03-12T00:46:21.970Z,5.72
2023-03-12T00:48:48.527Z,5.03
2023-03-12T00:51:15.058Z,5.65
2023-03-12T00:53:41.506Z,4.72
2023-03-12T00:56:09.807Z,5.07
2023-03-12T00:58:36.210Z,4.00
2023-03-12T01:01:02.948Z,4.93
2023-03-12T01:03:29.665Z,4.78
2023-03-12T01:05:56.109Z,5.00
2023-03-12T01:08:23.354Z,4.97
2023-03-12T01:10:50.388Z,6.32
2023-03-12T01:13:16.945Z,4.72
2023-03-12T01:16:02.267Z,4.93
2023-03-12T01:18:28.963Z,4.68
2023-03-12T01:20:55.475Z,4.93
2023-03-12T01:23:21.935Z,4.80
2023-03-12T01:25:49.362Z,4.88
2023-03-12T01:28:15.857Z,5.07
2023-03-12T01:30:42.305Z,5.30
2023-03-12T01:33:08.882Z,5.20
2023-03-12T01:35:37.721Z,5.10
2023-03-12T01:38:04.491Z,5.22
2023-03-12T01:40:33.765Z,5.25
2023-03-12T01:46:22.826Z,4.88
2023-03-12T01:48:54.949Z,4.85
2023-03-12T01:51:22.282Z,5.13
2023-03-12T01:53:54.098Z,4.78
2023-03-12T01:56:21.685Z,4.40
2023-03-12T01:58:52.554Z,5.05
2023-03-12T02:01:21.536Z,4.57
2023-03-12T02:03:51.943Z,4.78
2023-03-12T02:06:25.258Z,4.68
2023-03-12T02:08:52.174Z,4.38
2023-03-12T02:11:18.618Z,4.43
2023-03-12T02:13:45.056Z,4.40
2023-03-12T02:16:11.709Z,4.55
2023-03-12T02:18:38.315Z,4.25
2023-03-12T02:21:20.412Z,4.60
2023-03-12T02:23:57.170Z,4.15
2023-03-12T02:26:25.219Z,4.10
2023-03-12T02:28:54.258Z,3.58
2023-03-12T02:31:25.838Z,3.35
2023-03-12T02:33:53.183Z,4.10
2023-03-12T02:36:20.504Z,4.20
2023-03-12T02:38:49.323Z,3.53
2023-03-12T02:41:23.216Z,3.90
2023-03-12T02:43:57.769Z,3.92
2023-03-12T02:46:24.965Z,3.80
2023-03-12T02:48:53.461Z,3.78
2023-03-12T02:51:20.043Z,3.93
2023-03-12T02:53:46.709Z,3.47
2023-03-12T02:56:13.161Z,3.75
2023-03-12T02:58:39.578Z,3.78
2023-03-12T03:01:06.029Z,4.45
2023-03-12T03:03:32.519Z,4.05
2023-03-12T03:05:59.043Z,3.70
2023-03-12T03:08:25.549Z,4.10
2023-03-12T03:10:52.661Z,3.40
2023-03-12T03:13:19.120Z,3.92
2023-03-12T03:15:45.644Z,3.60
2023-03-12T03:18:12.123Z,4.38
2023-03-12T03:20:38.576Z,4.05
2023-03-12T03:23:05.006Z,3.65
2023-03-12T03:25:33.532Z,3.72
2023-03-12T03:28:00.042Z,2.83
2023-03-12T03:30:26.505Z,3.50
2023-03-12T03:32:52.995Z,3.75
2023-03-12T03:35:19.695Z,3.75
2023-03-12T03:37:46.195Z,3.20
2023-03-12T03:40:12.876Z,3.78
2023-03-12T03:42:40.192Z,3.92
2023-03-12T03:45:07.622Z,4.05
2023-03-12T03:47:34.058Z,4.10
2023-03-12T03:50:00.516Z,3.25
2023-03-12T03:52:26.987Z,3.85
2023-03-12T03:54:53.952Z,3.20
2023-03-12T03:57:20.394Z,3.60
2023-03-12T03:59:46.824Z,3.05
2023-03-12T04:02:13.330Z,3.03
2023-03-12T04:04:39.778Z,3.38
2023-03-12T04:07:06.213Z,3.10
2023-03-12T04:09:32.874Z,3.38
2023-03-12T04:11:59.365Z,3.47
2023-03-12T04:14:25.837Z,3.30
2023-03-12T04:16:52.291Z,3.38
2023-03-12T04:19:18.733Z,3.08
2023-03-12T04:21:45.447Z,4.07
2023-03-12T04:24:16.760Z,3.05
2023-03-12T04:26:43.208Z,2.83
2023-03-12T04:29:09.921Z,3.25
2023-03-12T04:31:36.536Z,3.25
2023-03-12T04:34:03.068Z,3.22
2023-03-12T04:36:29.775Z,2.88
2023-03-12T04:38:56.653Z,2.70
2023-03-12T04:41:23.193Z,3.88
2023-03-12T04:43:49.666Z,2.80
2023-03-12T04:46:16.382Z,2.83
2023-03-12T04:48:42.918Z,2.78
2023-03-12T04:51:09.479Z,3.30
2023-03-12T04:53:36.191Z,2.55
2023-03-12T04:56:02.776Z,3.15
2023-03-12T04:58:29.255Z,3.47
2023-03-12T05:00:55.741Z,2.90
2023-03-12T05:03:22.202Z,2.97
2023-03-12T05:05:48.826Z,3.03
2023-03-12T05:08:15.353Z,2.83
2023-03-12T05:10:45.245Z,3.33
2023-03-12T05:13:20.570Z,3.22
2023-03-12T05:15:48.771Z,3.47
2023-03-12T05:18:15.315Z,2.80
2023-03-12T05:20:41.849Z,3.25
2023-03-12T05:23:08.450Z,3.20
2023-03-12T05:25:39.023Z,3.10
2023-03-12T05:28:05.479Z,3.13
2023-03-12T05:30:31.898Z,3.83
2023-03-12T05:32:58.378Z,3.75
2023-03-12T05:35:24.861Z,3.70
2023-03-12T05:37:51.367Z,3.50
2023-03-12T05:40:17.930Z,3.10
2023-03-12T05:42:44.357Z,3.00
2023-03-12T05:45:10.935Z,3.42
2023-03-12T05:47:37.438Z,3.08
2023-03-12T05:50:04.285Z,3.50
2023-03-12T05:52:30.724Z,2.95
2023-03-12T05:55:00.164Z,3.50
2023-03-12T05:57:26.583Z,3.00
2023-03-12T05:59:53.046Z,3.22
2023-03-12T06:02:20.057Z,3.30
2023-03-12T06:04:46.600Z,4.00
2023-03-12T06:07:13.063Z,3.67
2023-03-12T06:09:39.468Z,3.42
2023-03-12T06:12:06.015Z,4.15
2023-03-12T06:14:32.506Z,3.08
2023-03-12T06:16:59.019Z,3.20
2023-03-12T06:19:25.562Z,3.25
2023-03-12T06:21:52.053Z,3.00
2023-03-12T06:24:18.488Z,3.72
2023-03-12T06:26:45.182Z,3.45
2023-03-12T06:29:11.799Z,3.28
2023-03-12T06:31:39.604Z,3.53
2023-03-12T06:34:06.156Z,3.35
2023-03-12T06:36:32.649Z,3.28
2023-03-12T06:38:59.057Z,3.50
2023-03-12T06:41:25.544Z,3.35
2023-03-12T06:43:51.988Z,3.40
2023-03-12T06:46:25.625Z,3.13
2023-03-12T06:48:52.209Z,3.10
2023-03-12T06:51:19.118Z,3.22
2023-03-12T06:53:46.529Z,2.70
2023-03-12T06:56:13.699Z,3.05
2023-03-12T06:58:40.422Z,3.40
2023-03-12T07:01:07.068Z,2.90
2023-03-12T07:03:33.891Z,3.30
2023-03-12T07:06:01.225Z,3.03
2023-03-12T07:08:31.038Z,3.50
2023-03-12T07:11:01.733Z,3.28
2023-03-12T07:13:28.756Z,3.35
2023-03-12T07:15:55.295Z,3.05
2023-03-12T07:18:21.814Z,4.45
2023-03-12T07:20:48.248Z,3.75
2023-03-12T07:23:15.062Z,4.10
2023-03-12T07:25:46.223Z,4.00
2023-03-12T07:28:13.013Z,4.63
2023-03-12T07:30:40.599Z,3.72
2023-03-12T07:33:09.776Z,3.67
2023-03-12T07:38:03.846Z,3.95
2023-03-12T07:40:31.066Z,3.60
2023-03-12T07:42:58.073Z,4.72
2023-03-12T07:45:24.762Z,4.18
2023-03-12T07:47:51.870Z,3.40
2023-03-12T07:50:19.104Z,5.78
2023-03-12T07:52:46.777Z,5.55
2023-03-12T07:55:13.826Z,4.55
2023-03-12T07:57:40.400Z,4.65
2023-03-12T08:00:08.765Z,4.70
2023-03-12T08:02:35.349Z,5.30
2023-03-12T08:05:02.474Z,4.45
2023-03-12T08:07:32.327Z,5.45
2023-03-12T08:10:00.308Z,4.78
2023-03-12T08:12:27.861Z,4.00
2023-03-12T08:14:55.010Z,5.75
2023-03-12T08:17:21.677Z,4.28
2023-03-12T08:19:48.260Z,4.15
2023-03-12T08:22:14.689Z,5.75
2023-03-12T08:24:41.323Z,4.10
2023-03-12T08:27:07.815Z,9.43
2023-03-12T08:29:34.343Z,5.88
2023-03-12T08:32:05.340Z,5.60
2023-03-12T08:34:35.193Z,5.20
2023-03-12T08:37:02.791Z,6.72
2023-03-12T08:39:29.809Z,4.78
2023-03-12T08:41:56.618Z,4.43
2023-03-12T08:44:23.977Z,4.38
2023-03-12T08:46:51.687Z,3.83
2023-03-12T08:49:19.170Z,3.83
2023-03-12T08:51:45.636Z,5.10
2023-03-12T08:54:12.087Z,4.90
2023-03-12T08:56:41.944Z,4.72
2023-03-12T08:59:09.668Z,4.72
2023-03-12T09:01:36.271Z,4.50
2023-03-12T09:04:04.309Z,5.60
2023-03-12T09:06:31.603Z,4.53
2023-03-12T09:08:59.347Z,6.03
2023-03-12T09:11:25.830Z,8.63
2023-03-12T09:14:28.047Z,8.65
2023-03-12T09:16:38.754Z,6.53
2023-03-12T09:19:05.499Z,5.65
2023-03-12T09:21:31.934Z,5.53
2023-03-12T09:23:58.603Z,7.20
2023-03-12T09:26:25.061Z,6.10
2023-03-12T09:28:51.605Z,5.97
2023-03-12T09:31:18.188Z,5.97
2023-03-12T09:33:44.854Z,5.95
2023-03-12T09:36:11.582Z,6.05
2023-03-12T09:38:38.255Z,6.45
2023-03-12T09:41:12.194Z,5.85
2023-03-12T09:43:41.689Z,6.85
2023-03-12T09:48:41.866Z,7.50
2023-03-12T09:51:26.560Z,5.50
2023-03-12T09:54:05.931Z,6.95
2023-03-12T09:59:00.335Z,5.93
2023-03-12T10:01:37.936Z,6.82
2023-03-12T10:04:17.934Z,6.50
2023-03-12T10:07:18.630Z,7.40
2023-03-12T10:10:13.327Z,7.03
2023-03-12T10:12:55.094Z,7.15
2023-03-12T10:15:44.037Z,7.40
2023-03-12T10:18:28.437Z,7.57
2023-03-12T10:21:00.552Z,7.15
2023-03-12T10:23:56.533Z,6.85
2023-03-12T10:26:37.985Z,8.27
2023-03-12T10:29:13.555Z,8.32
2023-03-12T10:31:48.742Z,7.97
2023-03-12T10:34:42.972Z,8.23
2023-03-12T10:37:44.731Z,8.32
2023-03-12T10:40:22.958Z,8.25
2023-03-12T10:42:49.701Z,8.60
2023-03-12T10:45:37.091Z,7.90
2023-03-12T10:48:07.122Z,7.95
2023-03-12T10:50:38.612Z,8.18
2023-03-12T10:53:29.390Z,8.38
2023-03-12T10:56:14.742Z,9.00
2023-03-12T10:58:41.077Z,8.30
2023-03-12T11:01:26.474Z,9.35
2023-03-12T11:04:10.393Z,8.30
2023-03-12T11:06:37.233Z,8.02
2023-03-12T11:09:16.794Z,9.52
2023-03-12T11:11:47.355Z,10.02
2023-03-12T11:14:16.486Z,10.77
2023-03-12T11:16:42.913Z,9.25
2023-03-12T11:19:13.972Z,8.88
2023-03-12T11:21:53.750Z,8.73
2023-03-12T11:24:20.189Z,10.00
2023-03-12T11:26:52.263Z,9.20
2023-03-12T11:29:24.999Z,11.32
2023-03-12T11:31:58.439Z,10.13
2023-03-12T11:34:30.312Z,8.35
2023-03-12T11:37:16.125Z,8.70
2023-03-12T11:40:12.023Z,9.98
2023-03-12T11:43:00.185Z,9.55
2023-03-12T11:45:43.975Z,9.95
2023-03-12T11:48:23.100Z,10.90
2023-03-12T11:51:14.051Z,11.20
2023-03-12T11:53:46.327Z,12.18
2023-03-12T11:56:24.458Z,12.65
2023-03-12T11:59:31.355Z,12.07
2023-03-12T12:02:30.078Z,12.32
2023-03-12T12:05:08.715Z,10.35
2023-03-12T12:07:45.024Z,10.50
2023-03-12T12:10:24.079Z,8.88
2023-03-12T12:13:04.676Z,7.28
2023-03-12T12:15:38.868Z,8.15
2023-03-12T12:18:27.103Z,6.50
2023-03-12T12:20:56.477Z,6.95
2023-03-12T12:23:51.721Z,7.05
2023-03-12T12:26:29.693Z,5.72
2023-03-12T12:29:01.222Z,6.15
2023-03-12T12:31:34.152Z,5.93
2023-03-12T12:34:30.814Z,4.75
2023-03-12T12:37:16.923Z,5.35
2023-03-12T12:39:52.876Z,4.57
2023-03-12T12:42:26.197Z,4.75
2023-03-12T12:44:57.455Z,4.47
2023-03-12T12:47:48.557Z,4.60
2023-03-12T12:50:19.971Z,4.20
2023-03-12T12:52:52.856Z,4.75
2023-03-12T12:55:29.131Z,4.68
2023-03-12T12:58:01.607Z,4.93
2023-03-12T13:00:46.326Z,4.28
2023-03-12T13:03:22.307Z,4.60
2023-03-12T13:05:58.886Z,4.60
2023-03-12T13:08:42.054Z,4.22
2023-03-12T13:11:19.507Z,4.22
2023-03-12T13:14:12.339Z,4.28
2023-03-12T13:16:42.444Z,4.60
2023-03-12T13:19:25.465Z,5.10
2023-03-12T13:22:22.828Z,4.22
2023-03-12T13:25:16.944Z,4.88
2023-03-12T13:27:45.788Z,4.80
2023-03-12T13:30:33.971Z,4.53
2023-03-12T13:33:01.723Z,5.35
2023-03-12T13:35:31.491Z,6.32
2023-03-12T13:38:04.273Z,5.07
2023-03-12T13:40:35.139Z,5.20
2023-03-12T13:43:15.540Z,4.45
2023-03-12T13:46:01.632Z,4.40
2023-03-12T13:48:28.261Z,4.45
2023-03-12T13:50:58.778Z,4.40
2023-03-12T13:53:34.644Z,4.32
2023-03-12T13:56:08.098Z,5.22
2023-03-12T13:58:59.797Z,4.35
2023-03-12T14:01:56.078Z,4.18
2023-03-12T14:04:28.971Z,4.72
2023-03-12T14:07:19.837Z,5.63
2023-03-12T14:09:57.101Z,4.13
2023-03-12T14:12:43.217Z,4.40
2023-03-12T14:15:16.867Z,4.43
2023-03-12T14:17:44.426Z,3.80
2023-03-12T14:20:19.237Z,4.07
2023-03-12T14:22:53.029Z,4.43
2023-03-12T14:25:29.245Z,3.95
2023-03-12T14:27:55.929Z,4.70
2023-03-12T14:30:36.001Z,4.63
2023-03-12T14:33:03.387Z,4.50
2023-03-12T14:35:37.240Z,4.75
2023-03-12T14:38:08.286Z,4.97
2023-03-12T14:40:46.083Z,3.33
2023-03-12T14:43:35.184Z,3.78
2023-03-12T14:46:05.921Z,4.10
2023-03-12T14:48:35.389Z,4.65
2023-03-12T14:53:30.988Z,3.60
2023-03-12T14:56:05.341Z,4.75
2023-03-12T14:58:33.217Z,4.13
2023-03-12T15:01:03.114Z,4.80
2023-03-12T15:03:34.054Z,3.95
2023-03-12T15:06:00.785Z,3.70
2023-03-12T15:08:27.253Z,3.97
2023-03-12T15:10:57.194Z,4.70
2023-03-12T15:13:25.671Z,3.45
2023-03-12T15:15:54.651Z,4.35
2023-03-12T15:18:30.403Z,3.63
2023-03-12T15:20:59.009Z,4.00
2023-03-12T15:23:27.790Z,4.27
2023-03-12T15:26:15.066Z,4.72
2023-03-12T15:28:42.254Z,4.65
2023-03-12T15:31:16.629Z,4.45
2023-03-12T15:33:44.339Z,4.78
2023-03-12T15:36:19.969Z,4.60
2023-03-12T15:38:52.698Z,4.47
2023-03-12T15:41:49.471Z,5.88
2023-03-12T15:44:19.694Z,4.65
2023-03-12T15:46:48.734Z,4.65
2023-03-12T15:49:27.059Z,4.75
2023-03-12T15:52:03.156Z,4.88
2023-03-12T15:54:30.431Z,4.95
2023-03-12T15:57:23.729Z,4.60
2023-03-12T16:00:13.406Z,5.32
2023-03-12T16:02:50.775Z,5.35
2023-03-12T16:05:19.641Z,4.88
2023-03-12T16:07:46.413Z,5.63
2023-03-12T16:10:19.260Z,4.93
2023-03-12T16:12:47.177Z,5.95
2023-03-12T16:15:25.966Z,5.15
2023-03-12T16:17:52.646Z,5.57
2023-03-12T16:20:19.893Z,5.22
2023-03-12T16:22:46.530Z,4.90
2023-03-12T16:25:16.051Z,5.13
2023-03-12T16:30:29.646Z,4.88
2023-03-12T16:32:57.471Z,5.57
2023-03-12T16:35:26.987Z,4.73
2023-03-12T16:37:54.272Z,5.03
2023-03-12T16:40:33.038Z,5.28
2023-03-12T16:45:33.595Z,5.07
2023-03-12T16:48:03.144Z,5.38
2023-03-12T16:52:56.757Z,5.30
2023-03-12T16:55:29.574Z,4.88
2023-03-12T16:58:01.971Z,5.43
2023-03-12T17:00:30.877Z,5.93
2023-03-12T17:02:58.264Z,5.75
2023-03-12T17:05:29.485Z,5.68
2023-03-12T17:07:56.843Z,5.68
2023-03-12T17:10:24.558Z,5.75
2023-03-12T17:12:52.027Z,5.40
2023-03-12T17:15:22.080Z,5.53
2023-03-12T17:17:49.611Z,5.13
2023-03-12T17:20:19.554Z,5.20
2023-03-12T17:22:46.296Z,4.78
2023-03-12T17:25:25.071Z,4.43
2023-03-12T17:27:52.138Z,4.80
2023-03-12T17:30:19.113Z,4.60
2023-03-12T17:32:45.693Z,5.05
2023-03-12T17:35:12.293Z,4.78
2023-03-12T17:37:38.704Z,4.88
2023-03-12T17:40:09.756Z,5.20
2023-03-12T17:42:37.257Z,4.78
2023-03-12T17:45:08.097Z,4.47
2023-03-12T17:47:35.459Z,4.97
2023-03-12T17:50:02.884Z,4.80
2023-03-12T17:52:29.399Z,4.90
2023-03-12T17:54:55.918Z,5.20
2023-03-12T17:57:23.095Z,5.60
2023-03-12T17:59:49.503Z,4.65
2023-03-12T18:02:16.112Z,4.13
2023-03-12T18:04:42.682Z,5.43
2023-03-12T18:07:09.186Z,4.65
2023-03-12T18:09:35.824Z,5.13
2023-03-12T18:12:02.459Z,4.85
2023-03-12T18:14:28.911Z,5.32
2023-03-12T18:16:55.369Z,4.63
2023-03-12T18:19:21.857Z,5.65
2023-03-12T18:21:48.375Z,4.82
2023-03-12T18:24:15.018Z,4.45
2023-03-12T18:26:41.731Z,5.95
2023-03-12T18:29:08.173Z,5.97
2023-03-12T18:31:34.681Z,5.38
2023-03-12T18:34:01.208Z,5.22
2023-03-12T18:36:27.664Z,5.05
2023-03-12T18:38:54.110Z,5.53
2023-03-12T18:41:20.659Z,6.03
2023-03-12T18:43:47.360Z,5.70
2023-03-12T18:46:14.135Z,5.40
2023-03-12T18:48:42.927Z,5.07
2023-03-12T18:51:10.532Z,5.18
2023-03-12T18:53:37.059Z,5.70
2023-03-12T18:56:03.779Z,5.47
2023-03-12T18:58:30.453Z,6.35
2023-03-12T19:00:58.312Z,5.85
2023-03-12T19:03:25.836Z,5.53
2023-03-12T19:06:05.203Z,6.07
2023-03-12T19:08:32.450Z,4.80
2023-03-12T19:10:59.048Z,6.60
2023-03-12T19:13:25.876Z,5.93
2023-03-12T19:15:58.855Z,5.88
2023-03-12T19:18:25.592Z,6.10
2023-03-12T19:20:52.090Z,5.70
2023-03-12T19:23:18.660Z,6.25
2023-03-12T19:25:45.131Z,5.25
2023-03-12T19:28:11.596Z,4.97
2023-03-12T19:30:38.123Z,5.50
2023-03-12T19:33:04.630Z,4.57
2023-03-12T19:35:31.309Z,5.53
2023-03-12T19:38:01.915Z,5.35
2023-03-12T19:40:28.549Z,5.10
2023-03-12T19:42:54.972Z,6.53
2023-03-12T19:45:21.470Z,6.03
2023-03-12T19:47:49.694Z,5.47
2023-03-12T19:50:19.880Z,5.60
2023-03-12T19:52:47.394Z,5.93
2023-03-12T19:55:14.489Z,4.93
2023-03-12T19:57:41.150Z,5.30
2023-03-12T20:00:10.138Z,6.00
2023-03-12T20:02:37.261Z,6.25
2023-03-12T20:05:04.388Z,6.00
2023-03-12T20:07:31.015Z,5.60
2023-03-12T20:09:57.472Z,6.13
2023-03-12T20:12:23.957Z,5.55
2023-03-12T20:14:50.389Z,5.55
2023-03-12T20:17:17.098Z,6.10
2023-03-12T20:19:43.631Z,4.95
2023-03-12T20:22:12.914Z,6.38
2023-03-12T20:24:41.734Z,5.43
2023-03-12T20:27:08.191Z,5.65
2023-03-12T20:29:34.770Z,5.43
2023-03-12T20:32:01.289Z,5.68
2023-03-12T20:34:27.798Z,5.50
2023-03-12T20:36:54.232Z,5.35
2023-03-12T20:39:20.781Z,5.80
2023-03-12T20:41:49.180Z,5.25
2023-03-12T20:44:15.787Z,4.80
2023-03-12T20:46:42.239Z,4.82
2023-03-12T20:49:08.659Z,5.35
2023-03-12T20:51:35.282Z,4.70
2023-03-12T20:54:01.714Z,4.82
2023-03-12T20:56:28.164Z,11.15
2023-03-12T20:58:54.638Z,12.77
2023-03-12T21:01:21.138Z,10.65
2023-03-12T21:03:47.695Z,8.77
2023-03-12T21:06:14.169Z,10.43
2023-03-12T21:08:40.628Z,9.95
2023-03-12T21:11:07.895Z,8.15
2023-03-12T21:13:34.451Z,6.35
2023-03-12T21:16:01.094Z,8.65
2023-03-12T21:18:28.938Z,8.75
2023-03-12T21:21:03.379Z,8.75
2023-03-12T21:23:30.822Z,8.38
2023-03-12T21:26:03.389Z,7.15
2023-03-12T21:28:30.881Z,7.63
2023-03-12T21:31:08.755Z,7.25
2023-03-12T21:33:35.586Z,6.75
2023-03-12T21:36:09.209Z,6.00
2023-03-12T21:38:40.088Z,5.57
2023-03-12T21:41:09.060Z,5.95
2023-03-12T21:43:36.537Z,4.35
2023-03-12T21:46:07.867Z,5.38
2023-03-12T21:48:35.184Z,5.13
2023-03-12T21:51:06.984Z,5.25
2023-03-12T21:53:34.485Z,5.28
2023-03-12T21:56:02.573Z,5.43
2023-03-12T21:58:29.872Z,5.15
2023-03-12T22:01:19.645Z,5.55
2023-03-12T22:03:49.018Z,6.00
2023-03-12T22:06:15.937Z,5.22
2023-03-12T22:08:43.453Z,5.00
2023-03-12T22:11:10.273Z,5.43
2023-03-12T22:13:37.362Z,4.93
2023-03-12T22:16:07.958Z,4.85
2023-03-12T22:18:39.899Z,4.32
2023-03-12T22:21:10.885Z,4.22
2023-03-12T22:23:37.523Z,5.07
2023-03-12T22:26:06.081Z,4.55
2023-03-12T22:28:33.193Z,4.30
2023-03-12T22:31:05.267Z,4.80
2023-03-12T22:33:32.351Z,4.13
2023-03-12T22:35:58.799Z,4.35
2023-03-12T22:38:25.576Z,5.25
2023-03-12T22:40:54.245Z,5.07
2023-03-12T22:43:21.931Z,4.63
2023-03-12T22:45:52.876Z,5.25
2023-03-12T22:48:19.355Z,4.45
2023-03-12T22:50:53.138Z,4.03
2023-03-12T22:53:19.594Z,4.20
2023-03-12T22:55:46.097Z,4.22
2023-03-12T22:58:12.934Z,4.28
2023-03-12T23:00:39.406Z,5.18
2023-03-12T23:03:05.848Z,5.57
2023-03-12T23:05:32.325Z,4.45
2023-03-12T23:07:58.820Z,4.18
2023-03-12T23:10:25.234Z,4.63
2023-03-12T23:12:51.698Z,4.53
2023-03-12T23:15:19.792Z,3.92
2023-03-12T23:17:46.291Z,4.35
2023-03-12T23:20:13.336Z,3.80
2023-03-12T23:22:39.910Z,3.80
2023-03-12T23:25:06.653Z,4.32
2023-03-12T23:27:33.133Z,4.40
2023-03-12T23:29:59.607Z,3.80
2023-03-12T23:32:26.029Z,3.50
2023-03-12T23:34:52.513Z,4.43
2023-03-12T23:37:19.193Z,4.25
2023-03-12T23:39:54.587Z,4.00
2023-03-12T23:42:21.566Z,3.72
2023-03-12T23:44:47.981Z,5.03
2023-03-12T23:47:14.496Z,3.97
2023-03-12T23:49:40.954Z,4.30
2023-03-12T23:52:07.478Z,3.97
2023-03-12T23:54:33.963Z,4.93
2023-03-12T23:57:00.413Z,3.80
2023-03-12T23:59:26.984Z,4.03
